createdAt,value
2022-11-23T00:01:50.479Z,86.40
2022-11-23T00:04:19.623Z,94.20
2022-11-23T00:06:49.100Z,83.10
2022-11-23T00:09:17.901Z,84.90
2022-11-23T00:11:46.793Z,86.40
2022-11-23T00:14:15.992Z,87.30
2022-11-23T00:16:46.707Z,93.10
2022-11-23T00:22:09.175Z,96.50
2022-11-23T00:24:38.479Z,95.50
2022-11-23T00:27:07.174Z,91.10
2022-11-23T00:29:38.037Z,82.00
2022-11-23T00:32:07.322Z,84.70
2022-11-23T00:34:36.188Z,87.50
2022-11-23T00:37:05.623Z,92.50
2022-11-23T00:39:34.560Z,80.20
2022-11-23T00:42:04.054Z,81.20
2022-11-23T00:44:32.842Z,69.60
2022-11-23T00:47:02.086Z,77.60
2022-11-23T00:49:31.368Z,78.90
2022-11-23T00:52:05.996Z,90.10
2022-11-23T00:54:35.116Z,84.40
2022-11-23T00:57:04.150Z,75.30
2022-11-23T00:59:33.797Z,81.20
2022-11-23T01:02:02.895Z,81.30
2022-11-23T01:04:32.456Z,78.40
2022-11-23T01:07:00.989Z,82.20
2022-11-23T01:09:30.520Z,81.80
2022-11-23T01:11:59.788Z,80.20
2022-11-23T01:14:28.786Z,86.20
2022-11-23T01:16:57.668Z,71.20
2022-11-23T01:19:26.885Z,73.90
2022-11-23T01:21:55.975Z,74.20
2022-11-23T01:24:25.453Z,77.20
2022-11-23T01:26:56.143Z,74.00
2022-11-23T01:29:25.389Z,75.40
2022-11-23T01:31:55.973Z,66.90
2022-11-23T01:34:24.776Z,74.80
2022-11-23T01:36:53.775Z,76.80
2022-11-23T01:39:22.818Z,74.20
2022-11-23T01:41:52.805Z,72.00
2022-11-23T01:44:34.300Z,68.40
2022-11-23T01:47:06.227Z,82.20
2022-11-23T01:49:50.229Z,78.80
2022-11-23T01:52:24.209Z,75.10
2022-11-23T01:55:08.615Z,64.90
2022-11-23T01:57:42.541Z,74.20
2022-11-23T02:00:14.005Z,71.10
2022-11-23T02:02:52.639Z,65.90
2022-11-23T02:05:25.731Z,70.00
2022-11-23T02:07:58.782Z,66.70
2022-11-23T02:10:28.799Z,71.20
2022-11-23T02:13:29.341Z,65.70
2022-11-23T02:18:55.854Z,65.80
2022-11-23T02:21:25.097Z,65.80
2022-11-23T02:24:41.746Z,73.20
2022-11-23T02:27:26.490Z,65.40
2022-11-23T02:30:00.714Z,66.90
2022-11-23T02:32:54.784Z,60.50
2022-11-23T02:35:24.907Z,72.50
2022-11-23T02:38:11.111Z,67.80
2022-11-23T02:40:44.963Z,67.20
2022-11-23T02:46:17.711Z,69.40
2022-11-23T02:48:49.261Z,63.70
2022-11-23T02:51:20.661Z,63.60
2022-11-23T02:53:49.760Z,58.60
2022-11-23T02:56:18.507Z,63.30
2022-11-23T02:58:47.752Z,62.90
2022-11-23T03:01:16.522Z,61.60
2022-11-23T03:03:45.467Z,62.00
2022-11-23T03:06:22.249Z,56.50
2022-11-23T03:08:51.501Z,59.70
2022-11-23T03:11:33.134Z,60.90
2022-11-23T03:14:02.654Z,67.10
2022-11-23T03:16:31.740Z,61.90
2022-11-23T03:19:00.664Z,59.70
2022-11-23T03:21:34.636Z,56.00
2022-11-23T03:24:08.540Z,57.10
2022-11-23T03:27:52.245Z,54.50
2022-11-23T03:30:43.914Z,56.10
2022-11-23T03:33:13.258Z,53.10
2022-11-23T03:35:51.369Z,54.80
2022-11-23T03:38:20.925Z,45.60
2022-11-23T03:40:49.948Z,51.90
2022-11-23T03:43:21.957Z,51.50
2022-11-23T03:45:51.706Z,52.30
2022-11-23T03:48:23.170Z,53.60
2022-11-23T03:50:52.745Z,47.90
2022-11-23T03:53:25.818Z,43.10
2022-11-23T03:55:58.321Z,45.50
2022-11-23T03:58:37.550Z,44.80
2022-11-23T04:01:09.731Z,49.10
2022-11-23T04:03:42.048Z,45.50
2022-11-23T04:06:16.508Z,46.70
2022-11-23T04:08:45.928Z,52.30
2022-11-23T04:11:14.599Z,52.50
2022-11-23T04:13:43.494Z,50.30
2022-11-23T04:16:12.719Z,46.10
2022-11-23T04:18:44.252Z,45.50
2022-11-23T04:21:13.472Z,44.90
2022-11-23T04:23:42.908Z,49.20
2022-11-23T04:26:11.711Z,48.10
2022-11-23T04:28:46.469Z,47.20
2022-11-23T04:31:15.453Z,46.10
2022-11-23T04:33:44.356Z,46.20
2022-11-23T04:36:16.406Z,40.50
2022-11-23T04:38:54.713Z,41.10
2022-11-23T04:41:25.043Z,44.00
2022-11-23T04:43:54.026Z,42.50
2022-11-23T04:46:22.659Z,43.80
2022-11-23T04:48:51.920Z,49.00
2022-11-23T04:51:20.661Z,39.00
2022-11-23T04:53:49.738Z,43.10
2022-11-23T04:56:18.208Z,36.90
2022-11-23T04:58:47.470Z,36.60
2022-11-23T05:01:16.513Z,40.60
2022-11-23T05:03:46.001Z,36.90
2022-11-23T05:06:14.715Z,37.20
2022-11-23T05:08:44.150Z,39.80
2022-11-23T05:11:13.145Z,41.20
2022-11-23T05:13:42.436Z,38.40
2022-11-23T05:16:11.023Z,36.00
2022-11-23T05:18:50.290Z,42.70
2022-11-23T05:21:19.364Z,38.00
2022-11-23T05:23:48.354Z,45.90
2022-11-23T05:26:17.388Z,36.80
2022-11-23T05:28:49.885Z,39.50
2022-11-23T05:31:21.289Z,41.40
2022-11-23T05:33:50.088Z,40.40
2022-11-23T05:36:19.231Z,41.70
2022-11-23T05:38:56.383Z,44.20
2022-11-23T05:41:36.514Z,43.50
2022-11-23T05:44:06.496Z,40.90
2022-11-23T05:46:48.711Z,36.90
2022-11-23T05:49:18.002Z,38.20
2022-11-23T05:52:01.712Z,39.10
2022-11-23T05:54:49.475Z,37.50
2022-11-23T05:57:18.442Z,38.90
2022-11-23T05:59:50.442Z,36.80
2022-11-23T06:02:19.857Z,34.80
2022-11-23T06:04:49.409Z,37.50
2022-11-23T06:07:28.143Z,38.60
2022-11-23T06:10:23.086Z,36.10
2022-11-23T06:13:06.393Z,44.20
2022-11-23T06:15:46.953Z,38.60
2022-11-23T06:18:34.990Z,39.60
2022-11-23T06:21:08.474Z,37.80
2022-11-23T06:23:50.489Z,39.60
2022-11-23T06:26:28.729Z,37.20
2022-11-23T06:29:09.973Z,38.70
2022-11-23T06:31:44.216Z,37.90
2022-11-23T06:34:29.797Z,37.10
2022-11-23T06:37:12.936Z,37.60
2022-11-23T06:39:49.251Z,39.80
2022-11-23T06:45:36.546Z,33.00
2022-11-23T06:48:16.085Z,42.00
2022-11-23T06:51:12.811Z,39.10
2022-11-23T06:53:44.335Z,42.20
2022-11-23T06:56:18.626Z,39.60
2022-11-23T06:58:52.032Z,42.80
2022-11-23T07:01:39.210Z,37.50
2022-11-23T07:04:34.661Z,32.70
2022-11-23T07:07:11.109Z,35.10
2022-11-23T07:10:15.852Z,32.40
2022-11-23T07:13:02.494Z,32.40
2022-11-23T07:15:41.738Z,35.50
2022-11-23T07:18:13.087Z,30.60
2022-11-23T07:20:48.004Z,32.20
2022-11-23T07:23:18.112Z,34.50
2022-11-23T07:26:00.899Z,30.30
2022-11-23T07:28:31.633Z,28.50
2022-11-23T07:31:04.402Z,26.80
2022-11-23T07:33:42.514Z,33.00
2022-11-23T07:36:11.758Z,32.00
2022-11-23T07:38:44.877Z,33.80
2022-11-23T07:41:25.462Z,31.80
2022-11-23T07:43:56.364Z,34.80
2022-11-23T07:46:26.190Z,35.80
2022-11-23T07:49:02.916Z,33.20
2022-11-23T07:51:33.532Z,30.50
2022-11-23T07:54:04.596Z,33.80
2022-11-23T07:56:42.711Z,30.90
2022-11-23T07:59:24.446Z,33.40
2022-11-23T08:02:06.979Z,31.20
2022-11-23T08:04:54.560Z,30.30
2022-11-23T08:07:24.009Z,28.80
2022-11-23T08:10:08.124Z,29.40
2022-11-23T08:12:37.713Z,29.70
2022-11-23T08:15:35.067Z,31.00
2022-11-23T08:18:07.458Z,39.90
2022-11-23T08:20:46.229Z,32.40
2022-11-23T08:23:21.227Z,31.50
2022-11-23T08:26:00.218Z,36.30
2022-11-23T08:28:32.718Z,32.40
2022-11-23T08:31:20.347Z,35.10
2022-11-23T08:33:51.297Z,33.30
2022-11-23T08:36:21.586Z,30.80
2022-11-23T08:38:59.640Z,27.50
2022-11-23T08:41:35.568Z,31.40
2022-11-23T08:44:10.301Z,28.80
2022-11-23T08:46:51.824Z,28.90
2022-11-23T08:49:25.125Z,30.50
2022-11-23T08:51:58.167Z,30.20
2022-11-23T08:54:27.875Z,31.80
2022-11-23T08:56:57.927Z,28.80
2022-11-23T08:59:47.834Z,29.20
2022-11-23T09:02:27.285Z,30.70
2022-11-23T09:05:13.916Z,32.80
2022-11-23T09:08:08.820Z,34.90
2022-11-23T09:11:10.787Z,26.80
2022-11-23T09:13:44.831Z,33.20
2022-11-23T09:16:35.186Z,26.70
2022-11-23T09:19:36.333Z,28.10
2022-11-23T09:22:16.609Z,28.20
2022-11-23T09:27:26.370Z,31.80
2022-11-23T09:29:55.856Z,25.10
2022-11-23T09:32:30.253Z,28.40
2022-11-23T09:35:24.042Z,27.10
2022-11-23T09:38:15.368Z,28.00
2022-11-23T09:40:44.920Z,22.90
2022-11-23T09:44:27.177Z,25.00
2022-11-23T09:47:35.956Z,28.80
2022-11-23T09:50:45.963Z,31.00
2022-11-23T09:53:56.546Z,32.00
2022-11-23T09:56:58.483Z,25.50
2022-11-23T10:00:28.608Z,25.10
2022-11-23T10:03:45.341Z,25.50
2022-11-23T10:07:22.738Z,25.30
2022-11-23T10:10:43.856Z,26.30
2022-11-23T10:13:40.864Z,26.50
2022-11-23T10:16:46.915Z,26.20
2022-11-23T10:19:55.179Z,26.60
2022-11-23T10:23:15.787Z,29.10
2022-11-23T10:26:18.663Z,25.50
2022-11-23T10:30:05.019Z,25.30
2022-11-23T10:33:10.102Z,28.30
2022-11-23T10:36:00.380Z,27.10
2022-11-23T10:39:26.504Z,26.80
2022-11-23T10:43:06.512Z,25.60
2022-11-23T10:46:06.377Z,28.90
2022-11-23T10:48:50.373Z,29.20
2022-11-23T10:51:43.487Z,31.70
2022-11-23T10:55:03.270Z,27.50
2022-11-23T10:57:55.281Z,24.90
2022-11-23T11:00:40.109Z,28.50
2022-11-23T11:03:31.576Z,26.40
2022-11-23T11:06:09.146Z,31.40
2022-11-23T11:09:00.430Z,25.30
2022-11-23T11:11:47.444Z,32.70
2022-11-23T11:14:37.826Z,33.30
2022-11-23T11:17:40.678Z,29.80
2022-11-23T11:20:39.402Z,29.60
2022-11-23T11:23:46.898Z,31.00
2022-11-23T11:26:43.751Z,34.60
2022-11-23T11:30:13.326Z,30.50
2022-11-23T11:32:56.156Z,37.50
2022-11-23T11:35:32.733Z,33.60
2022-11-23T11:38:36.521Z,38.50
2022-11-23T11:41:17.976Z,37.10
2022-11-23T11:44:32.106Z,35.00
2022-11-23T11:47:52.423Z,32.10
2022-11-23T11:51:09.410Z,32.00
2022-11-23T11:54:20.453Z,33.90
2022-11-23T11:57:13.396Z,38.50
2022-11-23T12:03:20.862Z,38.50
2022-11-23T12:05:54.588Z,40.70
2022-11-23T12:08:47.560Z,37.60
2022-11-23T12:11:16.141Z,34.90
2022-11-23T12:13:48.835Z,38.40
2022-11-23T12:16:23.753Z,36.70
2022-11-23T12:19:29.402Z,37.00
2022-11-23T12:22:10.067Z,39.00
2022-11-23T12:27:49.174Z,39.10
2022-11-23T12:30:41.575Z,40.10
2022-11-23T12:33:23.479Z,39.40
2022-11-23T12:36:08.095Z,37.60
2022-11-23T12:38:49.411Z,43.90
2022-11-23T12:42:00.845Z,45.60
2022-11-23T12:44:50.664Z,48.50
2022-11-23T12:47:56.011Z,47.70
2022-11-23T12:50:31.935Z,44.70
2022-11-23T12:53:04.234Z,48.60
2022-11-23T12:55:47.603Z,44.20
2022-11-23T12:58:33.169Z,53.20
2022-11-23T13:01:07.384Z,48.60
2022-11-23T13:04:10.491Z,50.10
2022-11-23T13:06:54.054Z,44.70
2022-11-23T13:09:59.875Z,40.30
2022-11-23T13:12:50.821Z,47.70
2022-11-23T13:15:53.696Z,50.90
2022-11-23T13:18:46.180Z,43.80
2022-11-23T13:21:37.547Z,51.70
2022-11-23T13:24:34.967Z,52.00
2022-11-23T13:29:53.332Z,51.10
2022-11-23T13:32:46.886Z,48.10
2022-11-23T13:35:22.351Z,48.20
2022-11-23T13:37:57.833Z,50.70
2022-11-23T13:40:37.322Z,52.60
2022-11-23T13:43:33.224Z,52.40
2022-11-23T13:46:23.885Z,53.30
2022-11-23T13:48:59.586Z,54.60
2022-11-23T13:51:30.694Z,65.70
2022-11-23T13:54:17.283Z,50.70
2022-11-23T13:56:49.522Z,52.50
2022-11-23T13:59:25.506Z,51.40
2022-11-23T14:02:22.611Z,52.60
2022-11-23T14:04:51.840Z,55.70
2022-11-23T14:07:43.528Z,59.50
2022-11-23T14:10:22.253Z,57.00
2022-11-23T14:13:14.907Z,55.00
2022-11-23T14:15:58.260Z,52.20
2022-11-23T14:18:49.445Z,59.50
2022-11-23T14:21:26.868Z,57.50
2022-11-23T14:24:38.789Z,65.10
2022-11-23T14:27:48.880Z,66.80
2022-11-23T14:30:48.141Z,70.00
2022-11-23T14:33:46.998Z,59.90
2022-11-23T14:36:38.914Z,64.10
2022-11-23T14:39:29.936Z,64.10
2022-11-23T14:42:09.882Z,56.80
2022-11-23T14:44:47.991Z,65.00
2022-11-23T14:47:49.983Z,62.20
2022-11-23T14:50:50.508Z,57.30
2022-11-23T14:53:44.064Z,60.40
2022-11-23T14:56:32.744Z,67.80
2022-11-23T14:59:37.448Z,63.80
2022-11-23T15:02:20.214Z,64.60
2022-11-23T15:05:24.816Z,57.00
2022-11-23T15:07:56.524Z,74.70
2022-11-23T15:10:37.463Z,61.40
2022-11-23T15:13:24.541Z,61.20
2022-11-23T15:15:59.356Z,56.60
2022-11-23T15:18:44.121Z,64.10
2022-11-23T15:21:28.132Z,59.00
2022-11-23T15:23:58.963Z,70.50
2022-11-23T15:32:29.476Z,63.80
2022-11-23T15:35:26.049Z,61.40
2022-11-23T15:37:56.493Z,68.60
2022-11-23T15:40:32.065Z,70.20
2022-11-23T15:43:03.030Z,67.30
2022-11-23T15:45:50.731Z,75.40
2022-11-23T15:48:29.839Z,70.60
2022-11-23T15:51:04.201Z,60.10
2022-11-23T15:53:51.100Z,70.00
2022-11-23T15:56:29.804Z,61.50
2022-11-23T15:59:22.369Z,59.40
2022-11-23T16:01:54.062Z,67.40
2022-11-23T16:04:43.135Z,61.00
2022-11-23T16:07:21.990Z,68.20
2022-11-23T16:10:20.623Z,62.70
2022-11-23T16:12:58.720Z,61.30
2022-11-23T16:15:42.581Z,69.80
2022-11-23T16:18:22.180Z,75.00
2022-11-23T16:20:59.854Z,65.90
2022-11-23T16:23:49.162Z,66.80
2022-11-23T16:26:20.209Z,64.80
2022-11-23T16:28:54.104Z,67.60
2022-11-23T16:31:42.850Z,65.40
2022-11-23T16:34:20.483Z,67.50
2022-11-23T16:36:57.069Z,63.00
2022-11-23T16:39:28.073Z,57.50
2022-11-23T16:41:57.455Z,60.20
2022-11-23T16:44:32.235Z,60.70
2022-11-23T16:47:28.866Z,76.60
2022-11-23T16:50:06.015Z,95.30
2022-11-23T16:52:36.670Z,80.70
2022-11-23T16:55:07.409Z,72.00
2022-11-23T16:57:39.500Z,198.80
2022-11-23T17:00:23.452Z,73.30
2022-11-23T17:02:55.794Z,71.60
2022-11-23T17:05:32.155Z,80.70
2022-11-23T17:08:11.217Z,65.70
2022-11-23T17:10:53.219Z,63.90
2022-11-23T17:14:16.334Z,64.30
2022-11-23T17:17:36.627Z,62.50
2022-11-23T17:20:28.793Z,58.00
2022-11-23T17:23:51.595Z,65.30
2022-11-23T17:26:59.207Z,67.50
2022-11-23T17:29:35.621Z,65.60
2022-11-23T17:32:17.862Z,67.10
2022-11-23T17:35:25.593Z,63.00
2022-11-23T17:38:33.273Z,64.10
2022-11-23T17:41:22.283Z,72.60
2022-11-23T17:43:57.939Z,70.60
2022-11-23T17:58:19.502Z,69.20
2022-11-23T18:01:30.619Z,70.70
2022-11-23T18:04:38.193Z,64.30
2022-11-23T18:07:38.779Z,69.60
2022-11-23T18:10:34.281Z,72.20
2022-11-23T18:17:11.846Z,65.10
2022-11-23T18:23:44.128Z,71.50
2022-11-23T18:26:19.141Z,78.10
2022-11-23T18:28:47.712Z,77.00
2022-11-23T18:31:16.455Z,77.50
2022-11-23T18:33:49.924Z,67.60
2022-11-23T18:36:19.122Z,67.30
2022-11-23T18:38:50.553Z,71.50
2022-11-23T18:41:18.617Z,61.80
2022-11-23T18:43:46.079Z,57.90
2022-11-23T18:49:58.052Z,54.90
2022-11-23T18:52:36.832Z,60.90
2022-11-23T18:55:07.072Z,59.50
2022-11-23T18:57:35.311Z,57.40
2022-11-23T19:00:22.771Z,50.50
2022-11-23T19:02:59.799Z,60.70
2022-11-23T19:05:42.252Z,60.90
2022-11-23T19:08:11.735Z,69.20
2022-11-23T19:10:44.714Z,60.50
2022-11-23T19:13:24.563Z,62.70
2022-11-23T19:15:53.005Z,70.00
2022-11-23T19:18:42.727Z,70.40
2022-11-23T19:21:38.741Z,69.40
2022-11-23T19:24:09.247Z,67.60
2022-11-23T19:29:29.082Z,66.50
2022-11-23T19:32:01.821Z,67.70
2022-11-23T19:34:29.174Z,66.10
2022-11-23T19:38:25.225Z,63.90
2022-11-23T19:41:12.574Z,63.40
2022-11-23T19:43:43.687Z,65.20
2022-11-23T19:46:31.172Z,65.30
2022-11-23T19:49:15.636Z,65.60
2022-11-23T19:51:52.718Z,60.80
2022-11-23T19:54:59.943Z,56.80
2022-11-23T20:01:19.375Z,59.70
2022-11-23T20:04:17.745Z,62.00
2022-11-23T20:10:36.582Z,56.70
2022-11-23T20:17:50.749Z,68.60
2022-11-23T20:23:42.607Z,67.10
2022-11-23T20:23:54.195Z,62.00
2022-11-23T20:26:33.380Z,70.40
2022-11-23T20:29:02.028Z,60.70
2022-11-23T20:31:43.816Z,59.70
2022-11-23T20:34:24.059Z,59.80
2022-11-23T20:36:53.447Z,61.20
2022-11-23T20:39:23.992Z,63.30
2022-11-23T20:41:51.916Z,57.90
2022-11-23T20:44:33.494Z,63.90
2022-11-23T20:47:06.400Z,61.00
2022-11-23T20:49:41.112Z,59.30
2022-11-23T20:52:08.407Z,64.70
2022-11-23T20:54:58.487Z,63.60
2022-11-23T20:57:33.447Z,67.70
2022-11-23T21:00:10.225Z,63.80
2022-11-23T21:02:53.968Z,69.70
2022-11-23T21:05:46.732Z,58.30
2022-11-23T21:08:31.644Z,64.50
2022-11-23T21:12:04.073Z,62.50
2022-11-23T21:18:37.244Z,63.30
2022-11-23T21:21:18.698Z,63.90
2022-11-23T21:24:13.882Z,64.00
2022-11-23T21:27:07.780Z,62.90
2022-11-23T21:30:02.513Z,56.00
2022-11-23T21:32:36.374Z,63.70
2022-11-23T21:35:52.271Z,56.60
2022-11-23T21:39:00.591Z,71.10
2022-11-23T21:41:59.262Z,61.90
2022-11-23T21:44:38.454Z,60.50
2022-11-23T21:47:18.160Z,66.70
2022-11-23T21:50:02.292Z,57.00
2022-11-23T21:52:46.083Z,66.20
2022-11-23T21:55:20.854Z,61.20
2022-11-23T21:57:55.603Z,63.40
2022-11-23T22:00:34.845Z,65.20
2022-11-23T22:06:36.620Z,64.20
2022-11-23T22:09:23.052Z,66.90
2022-11-23T22:12:09.929Z,58.70
2022-11-23T22:14:47.190Z,58.30
2022-11-23T22:17:27.357Z,55.70
2022-11-23T22:20:15.407Z,52.60
2022-11-23T22:22:59.271Z,54.10
2022-11-23T22:25:51.617Z,55.20
2022-11-23T22:28:31.784Z,55.80
2022-11-23T22:31:08.935Z,56.30
2022-11-23T22:33:37.565Z,66.30
2022-11-23T22:36:21.132Z,63.40
2022-11-23T22:39:04.161Z,67.10
2022-11-23T22:41:38.895Z,66.60
2022-11-23T22:44:12.357Z,63.80
2022-11-23T22:46:43.958Z,71.40
2022-11-23T22:49:16.201Z,72.10
2022-11-23T22:51:46.176Z,64.70
2022-11-23T22:54:21.311Z,59.80
2022-11-23T22:56:53.594Z,58.20
2022-11-23T22:59:27.456Z,65.50
2022-11-23T23:02:15.404Z,62.40
2022-11-23T23:04:55.715Z,67.00
2022-11-23T23:07:38.090Z,54.80
2022-11-23T23:10:13.553Z,62.30
2022-11-23T23:12:59.429Z,58.70
2022-11-23T23:15:29.898Z,57.60
2022-11-23T23:20:38.305Z,57.00
2022-11-23T23:23:07.794Z,58.70
2022-11-23T23:25:45.599Z,55.10
2022-11-23T23:28:26.431Z,53.50
2022-11-23T23:31:03.102Z,50.60
2022-11-23T23:33:33.051Z,50.50
2022-11-23T23:36:15.647Z,53.50
2022-11-23T23:38:52.855Z,49.50
2022-11-23T23:41:40.561Z,46.00
2022-11-23T23:44:19.336Z,49.60
2022-11-23T23:46:52.512Z,48.10
2022-11-23T23:49:39.487Z,47.00
2022-11-23T23:52:15.888Z,48.20
2022-11-23T23:54:52.825Z,47.80
2022-11-23T23:57:40.165Z,47.20
